createdAt,value
2017-12-05T00:01:57.217Z,45.90
2017-12-05T00:04:24.629Z,44.10
2017-12-05T00:06:52.021Z,44.17
2017-12-05T00:09:19.447Z,45.40
2017-12-05T00:11:46.837Z,42.57
2017-12-05T00:14:14.228Z,44.50
2017-12-05T00:16:41.626Z,41.53
2017-12-05T00:19:09.024Z,41.17
2017-12-05T00:21:36.423Z,41.30
2017-12-05T00:24:03.814Z,39.00
2017-12-05T00:26:31.219Z,40.30
2017-12-05T00:28:58.632Z,40.27
2017-12-05T00:31:26.032Z,41.30
2017-12-05T00:33:53.438Z,40.83
2017-12-05T00:36:20.830Z,41.40
2017-12-05T00:38:48.246Z,39.97
2017-12-05T00:41:15.655Z,40.17
2017-12-05T00:43:43.070Z,39.53
2017-12-05T00:46:10.462Z,39.20
2017-12-05T00:48:37.854Z,37.77
2017-12-05T00:51:05.273Z,37.27
2017-12-05T00:53:32.708Z,39.73
2017-12-05T00:56:00.094Z,38.70
2017-12-05T00:58:27.487Z,38.07
2017-12-05T01:00:54.901Z,39.53
2017-12-05T01:03:22.296Z,37.00
2017-12-05T01:05:49.713Z,34.40
2017-12-05T01:08:17.149Z,35.20
2017-12-05T01:10:44.535Z,35.83
2017-12-05T01:13:11.930Z,34.53
2017-12-05T01:15:39.354Z,34.90
2017-12-05T01:18:06.737Z,35.93
2017-12-05T01:20:34.170Z,33.63
2017-12-05T01:23:01.579Z,34.30
2017-12-05T01:25:28.975Z,33.77
2017-12-05T01:27:56.372Z,35.40
2017-12-05T01:30:23.774Z,33.83
2017-12-05T01:32:51.178Z,33.47
2017-12-05T01:35:18.590Z,33.27
2017-12-05T01:37:46.013Z,34.03
2017-12-05T01:40:13.442Z,32.70
2017-12-05T01:42:40.830Z,34.93
2017-12-05T01:45:08.217Z,34.40
2017-12-05T01:47:35.618Z,33.13
2017-12-05T01:50:03.056Z,34.80
2017-12-05T01:52:30.436Z,33.07
2017-12-05T01:54:57.839Z,33.47
2017-12-05T01:57:25.310Z,33.37
2017-12-05T01:59:52.690Z,32.47
2017-12-05T02:02:20.090Z,32.90
2017-12-05T02:04:47.524Z,32.47
2017-12-05T02:07:14.941Z,31.00
2017-12-05T02:09:42.307Z,30.67
2017-12-05T02:12:09.706Z,31.00
2017-12-05T02:14:37.098Z,31.57
2017-12-05T02:17:04.511Z,30.20
2017-12-05T02:19:31.902Z,32.63
2017-12-05T02:21:59.318Z,31.17
2017-12-05T02:24:26.731Z,28.95
2017-12-05T02:26:54.114Z,31.07
2017-12-05T02:29:21.605Z,29.67
2017-12-05T02:31:48.951Z,30.03
2017-12-05T02:34:16.346Z,28.47
2017-12-05T02:36:43.761Z,30.83
2017-12-05T02:39:11.174Z,29.40
2017-12-05T02:41:38.582Z,30.33
2017-12-05T02:44:05.973Z,29.50
2017-12-05T02:46:33.376Z,30.03
2017-12-05T02:49:00.763Z,29.00
2017-12-05T02:51:28.172Z,29.40
2017-12-05T02:53:55.560Z,28.40
2017-12-05T02:56:22.951Z,27.90
2017-12-05T02:58:50.339Z,29.50
2017-12-05T03:01:17.754Z,28.03
2017-12-05T03:03:45.194Z,29.27
2017-12-05T03:06:12.578Z,29.17
2017-12-05T03:08:39.978Z,30.40
2017-12-05T03:11:07.378Z,29.00
2017-12-05T03:13:34.789Z,28.70
2017-12-05T03:16:02.194Z,28.90
2017-12-05T03:18:29.595Z,28.00
2017-12-05T03:20:57.039Z,28.57
2017-12-05T03:23:24.447Z,27.50
2017-12-05T03:25:51.842Z,29.67
2017-12-05T03:28:19.288Z,27.70
2017-12-05T03:30:46.667Z,29.00
2017-12-05T03:33:14.092Z,30.73
2017-12-05T03:35:41.486Z,29.10
2017-12-05T03:38:08.886Z,29.50
2017-12-05T03:40:36.305Z,26.43
2017-12-05T03:43:03.718Z,28.57
2017-12-05T03:45:31.151Z,27.07
2017-12-05T03:47:58.546Z,28.47
2017-12-05T03:50:25.946Z,27.00
2017-12-05T03:52:53.350Z,26.27
2017-12-05T03:55:20.733Z,28.30
2017-12-05T03:57:48.147Z,25.70
2017-12-05T04:00:15.558Z,25.40
2017-12-05T04:02:42.946Z,24.77
2017-12-05T04:05:10.354Z,25.70
2017-12-05T04:07:37.774Z,25.10
2017-12-05T04:10:05.189Z,24.43
2017-12-05T04:12:32.574Z,24.53
2017-12-05T04:14:59.976Z,24.47
2017-12-05T04:17:27.379Z,23.30
2017-12-05T04:19:54.784Z,23.43
2017-12-05T04:22:22.174Z,23.87
2017-12-05T04:24:49.580Z,22.40
2017-12-05T04:27:16.971Z,24.03
2017-12-05T04:29:44.405Z,24.37
2017-12-05T04:32:11.803Z,22.63
2017-12-05T04:34:39.204Z,22.63
2017-12-05T04:37:06.614Z,22.37
2017-12-05T04:39:34.014Z,21.87
2017-12-05T04:42:01.410Z,22.20
2017-12-05T04:44:28.802Z,22.77
2017-12-05T04:46:56.202Z,24.00
2017-12-05T04:49:23.610Z,22.33
2017-12-05T04:51:51.022Z,23.80
2017-12-05T04:54:18.426Z,22.60
2017-12-05T04:56:45.826Z,23.43
2017-12-05T04:59:13.251Z,22.87
2017-12-05T05:01:40.626Z,22.80
2017-12-05T05:04:08.030Z,22.70
2017-12-05T05:06:35.418Z,21.57
2017-12-05T05:09:02.818Z,22.43
2017-12-05T05:11:30.222Z,23.57
2017-12-05T05:13:57.606Z,24.83
2017-12-05T05:16:25.004Z,24.57
2017-12-05T05:18:52.394Z,24.57
2017-12-05T05:21:19.796Z,24.27
2017-12-05T05:23:47.200Z,26.20
2017-12-05T05:26:14.622Z,26.57
2017-12-05T05:28:42.014Z,26.30
2017-12-05T05:31:09.459Z,26.23
2017-12-05T05:33:36.856Z,27.90
2017-12-05T05:36:04.249Z,25.00
2017-12-05T05:38:31.655Z,25.00
2017-12-05T05:40:59.059Z,26.10
2017-12-05T05:43:26.487Z,25.67
2017-12-05T05:45:53.892Z,24.70
2017-12-05T05:48:21.294Z,27.07
2017-12-05T05:50:48.686Z,25.80
2017-12-05T05:53:16.074Z,27.43
2017-12-05T05:55:43.522Z,26.63
2017-12-05T05:58:10.918Z,26.23
2017-12-05T06:00:38.321Z,27.70
2017-12-05T06:03:05.706Z,25.17
2017-12-05T06:05:33.111Z,25.47
2017-12-05T06:08:00.502Z,26.00
2017-12-05T06:10:27.907Z,24.40
2017-12-05T06:12:55.301Z,27.60
2017-12-05T06:15:22.693Z,27.43
2017-12-05T06:17:50.090Z,27.07
2017-12-05T06:20:17.491Z,27.30
2017-12-05T06:22:44.950Z,30.47
2017-12-05T06:25:12.362Z,25.57
2017-12-05T06:27:39.763Z,28.67
2017-12-05T06:30:07.158Z,27.43
2017-12-05T06:32:34.602Z,29.63
2017-12-05T06:35:01.986Z,27.40
2017-12-05T06:37:29.424Z,27.40
2017-12-05T06:39:56.870Z,26.47
2017-12-05T06:42:24.278Z,30.87
2017-12-05T06:44:51.713Z,31.83
2017-12-05T06:47:19.150Z,30.23
2017-12-05T06:49:46.566Z,30.33
2017-12-05T06:52:13.977Z,26.63
2017-12-05T06:54:41.378Z,30.77
2017-12-05T06:57:08.766Z,32.10
2017-12-05T06:59:36.231Z,31.80
2017-12-05T07:02:03.646Z,35.60
2017-12-05T07:04:31.038Z,35.40
2017-12-05T07:06:58.438Z,34.80
2017-12-05T07:09:25.845Z,33.97
2017-12-05T07:11:53.242Z,34.60
2017-12-05T07:14:20.634Z,36.00
2017-12-05T07:16:48.062Z,34.57
2017-12-05T07:19:15.454Z,35.70
2017-12-05T07:21:42.859Z,35.70
2017-12-05T07:24:10.275Z,34.17
2017-12-05T07:26:37.674Z,34.70
2017-12-05T07:29:05.079Z,33.23
2017-12-05T07:31:32.506Z,35.13
2017-12-05T07:33:59.918Z,34.30
2017-12-05T07:36:27.318Z,33.60
2017-12-05T07:38:54.745Z,34.57
2017-12-05T07:41:22.154Z,39.43
2017-12-05T07:43:49.987Z,35.10
2017-12-05T07:46:17.355Z,36.20
2017-12-05T07:48:44.750Z,34.53
2017-12-05T07:51:12.150Z,33.90
2017-12-05T07:53:39.571Z,35.00
2017-12-05T07:56:06.957Z,36.70
2017-12-05T07:58:34.360Z,35.20
2017-12-05T08:01:01.758Z,35.67
2017-12-05T08:03:29.180Z,33.57
2017-12-05T08:05:56.589Z,35.40
2017-12-05T08:08:24.009Z,35.00
2017-12-05T08:10:51.468Z,33.90
2017-12-05T08:13:18.802Z,35.33
2017-12-05T08:15:46.206Z,33.90
2017-12-05T08:18:13.604Z,32.80
2017-12-05T08:20:41.015Z,34.50
2017-12-05T08:23:08.410Z,35.60
2017-12-05T08:25:35.854Z,35.20
2017-12-05T08:28:03.263Z,34.73
2017-12-05T08:30:30.653Z,33.97
2017-12-05T08:32:58.097Z,36.93
2017-12-05T08:35:25.487Z,37.27
2017-12-05T08:37:52.883Z,35.60
2017-12-05T08:40:20.286Z,34.40
2017-12-05T08:42:47.685Z,37.60
2017-12-05T08:45:15.106Z,38.13
2017-12-05T08:47:42.501Z,37.27
2017-12-05T08:50:09.895Z,36.57
2017-12-05T08:52:37.283Z,37.13
2017-12-05T08:55:04.686Z,38.90
2017-12-05T08:57:32.079Z,38.73
2017-12-05T08:59:59.471Z,37.00
2017-12-05T09:02:26.890Z,39.50
2017-12-05T09:04:54.294Z,40.33
2017-12-05T09:07:21.686Z,38.07
2017-12-05T09:09:49.078Z,40.10
2017-12-05T09:12:16.492Z,38.73
2017-12-05T09:14:43.879Z,40.33
2017-12-05T09:17:11.319Z,39.87
2017-12-05T09:19:38.718Z,38.17
2017-12-05T09:22:06.109Z,38.50
2017-12-05T09:24:33.550Z,38.90
2017-12-05T09:27:00.944Z,38.43
2017-12-05T09:29:28.346Z,37.53
2017-12-05T09:31:55.738Z,37.80
2017-12-05T09:34:23.126Z,38.17
2017-12-05T09:36:50.534Z,36.37
2017-12-05T09:39:17.932Z,37.80
2017-12-05T09:41:45.327Z,35.67
2017-12-05T09:44:12.717Z,35.87
2017-12-05T09:46:40.178Z,37.73
2017-12-05T09:49:07.583Z,34.73
2017-12-05T09:51:34.970Z,33.10
2017-12-05T09:54:02.380Z,36.63
2017-12-05T09:56:29.777Z,34.13
2017-12-05T09:58:57.166Z,34.23
2017-12-05T10:01:24.559Z,34.83
2017-12-05T10:03:51.962Z,34.10
2017-12-05T10:06:19.352Z,33.27
2017-12-05T10:08:46.739Z,35.57
2017-12-05T10:11:14.142Z,36.30
2017-12-05T10:13:41.547Z,34.87
2017-12-05T10:16:08.941Z,34.03
2017-12-05T10:18:36.334Z,33.93
2017-12-05T10:21:03.733Z,33.53
2017-12-05T10:23:31.127Z,35.20
2017-12-05T10:25:58.522Z,33.80
2017-12-05T10:28:25.922Z,33.10
2017-12-05T10:30:53.314Z,32.17
2017-12-05T10:33:20.717Z,32.60
2017-12-05T10:35:48.110Z,32.90
2017-12-05T10:38:15.516Z,33.60
2017-12-05T10:40:42.902Z,33.87
2017-12-05T10:43:10.309Z,32.87
2017-12-05T10:45:37.725Z,33.37
2017-12-05T10:48:05.134Z,30.33
2017-12-05T10:50:32.554Z,33.10
2017-12-05T10:52:59.960Z,32.83
2017-12-05T10:55:27.392Z,33.23
2017-12-05T10:57:54.794Z,30.83
2017-12-05T11:00:22.200Z,31.90
2017-12-05T11:02:49.615Z,31.70
2017-12-05T11:05:17.026Z,30.70
2017-12-05T11:07:44.437Z,33.30
2017-12-05T11:10:11.848Z,32.50
2017-12-05T11:12:39.257Z,31.43
2017-12-05T11:15:06.662Z,30.07
2017-12-05T11:17:34.085Z,31.40
2017-12-05T11:20:01.506Z,30.83
2017-12-05T11:22:28.921Z,31.17
2017-12-05T11:24:56.336Z,32.63
2017-12-05T11:27:23.737Z,32.10
2017-12-05T11:29:51.157Z,33.10
2017-12-05T11:32:19.261Z,31.10
2017-12-05T11:34:46.669Z,30.40
2017-12-05T11:37:14.086Z,30.57
2017-12-05T11:39:41.490Z,32.17
2017-12-05T11:42:08.907Z,30.70
2017-12-05T11:44:36.313Z,33.13
2017-12-05T11:47:03.745Z,31.90
2017-12-05T11:49:31.157Z,29.73
2017-12-05T11:51:58.569Z,30.50
2017-12-05T11:54:25.986Z,33.63
2017-12-05T11:56:53.389Z,31.93
2017-12-05T11:59:20.804Z,32.00
2017-12-05T12:01:48.213Z,31.23
2017-12-05T12:04:15.640Z,32.47
2017-12-05T12:06:43.049Z,34.50
2017-12-05T12:09:10.453Z,32.63
2017-12-05T12:11:38.637Z,31.40
2017-12-05T12:14:06.048Z,30.80
2017-12-05T12:16:33.463Z,32.47
2017-12-05T12:19:00.867Z,32.30
2017-12-05T12:21:28.285Z,32.23
2017-12-05T12:23:55.698Z,31.57
2017-12-05T12:26:23.106Z,32.40
2017-12-05T12:28:50.522Z,32.60
2017-12-05T12:31:17.944Z,32.40
2017-12-05T12:33:45.345Z,32.47
2017-12-05T12:36:12.855Z,32.57
2017-12-05T12:38:40.252Z,33.20
2017-12-05T12:41:07.670Z,33.73
2017-12-05T12:43:35.075Z,33.37
2017-12-05T12:46:02.493Z,33.27
2017-12-05T12:48:29.894Z,32.07
2017-12-05T12:50:57.298Z,34.33
2017-12-05T12:53:24.710Z,33.97
2017-12-05T12:55:52.114Z,32.60
2017-12-05T12:58:19.523Z,33.10
2017-12-05T13:00:46.930Z,34.53
2017-12-05T13:03:14.345Z,35.20
2017-12-05T13:05:41.760Z,34.40
2017-12-05T13:08:09.164Z,33.87
2017-12-05T13:10:36.586Z,32.90
2017-12-05T13:13:03.997Z,33.03
2017-12-05T13:15:31.419Z,32.03
2017-12-05T13:17:58.833Z,33.20
2017-12-05T13:20:26.238Z,32.57
2017-12-05T13:22:54.609Z,34.10
2017-12-05T13:25:22.021Z,34.07
2017-12-05T13:27:49.429Z,33.20
2017-12-05T13:30:16.865Z,33.27
2017-12-05T13:32:44.273Z,32.97
2017-12-05T13:35:11.689Z,33.00
2017-12-05T13:37:39.093Z,33.47
2017-12-05T13:40:06.534Z,34.40
2017-12-05T13:42:33.942Z,32.13
2017-12-05T13:45:01.350Z,33.07
2017-12-05T13:47:29.774Z,35.00
2017-12-05T13:49:57.194Z,35.10
2017-12-05T13:52:24.608Z,33.73
2017-12-05T13:54:52.013Z,33.87
2017-12-05T13:57:19.441Z,33.33
2017-12-05T13:59:47.131Z,33.80
2017-12-05T14:02:14.530Z,34.63
2017-12-05T14:04:41.952Z,32.67
2017-12-05T14:07:09.358Z,31.37
2017-12-05T14:09:36.770Z,32.20
2017-12-05T14:12:04.172Z,32.07
2017-12-05T14:14:31.603Z,31.77
2017-12-05T14:16:59.021Z,32.00
2017-12-05T14:19:26.425Z,29.60
2017-12-05T14:21:53.834Z,31.17
2017-12-05T14:24:21.241Z,29.23
2017-12-05T14:26:48.658Z,30.90
2017-12-05T14:29:16.066Z,30.97
2017-12-05T14:31:43.503Z,31.40
2017-12-05T14:34:10.909Z,31.77
2017-12-05T14:36:38.354Z,28.23
2017-12-05T14:39:05.864Z,30.40
2017-12-05T14:41:33.273Z,30.50
2017-12-05T14:44:00.688Z,30.27
2017-12-05T14:46:28.091Z,30.70
2017-12-05T14:48:55.525Z,31.53
2017-12-05T14:51:22.938Z,32.47
2017-12-05T14:53:50.345Z,30.90
2017-12-05T14:56:17.757Z,31.13
2017-12-05T14:58:45.170Z,33.93
2017-12-05T15:01:12.585Z,32.37
2017-12-05T15:03:39.996Z,33.13
2017-12-05T15:06:07.418Z,32.37
2017-12-05T15:08:34.844Z,31.23
2017-12-05T15:11:02.248Z,31.10
2017-12-05T15:13:29.670Z,29.97
2017-12-05T15:15:57.073Z,30.30
2017-12-05T15:18:24.491Z,32.93
2017-12-05T15:20:51.896Z,32.03
2017-12-05T15:23:19.325Z,30.10
2017-12-05T15:25:52.729Z,32.50
2017-12-05T15:28:20.157Z,30.03
2017-12-05T15:30:47.573Z,30.90
2017-12-05T15:33:14.978Z,31.23
2017-12-05T15:35:42.393Z,29.97
2017-12-05T15:38:09.798Z,29.47
2017-12-05T15:40:37.205Z,29.70
2017-12-05T15:43:04.611Z,32.13
2017-12-05T15:45:32.037Z,29.30
2017-12-05T15:47:59.442Z,29.20
2017-12-05T15:50:26.850Z,30.93
2017-12-05T15:52:54.303Z,32.70
2017-12-05T15:55:21.709Z,31.30
2017-12-05T15:57:49.125Z,31.13
2017-12-05T16:00:16.541Z,32.60
2017-12-05T16:02:43.961Z,30.20
2017-12-05T16:05:11.381Z,32.33
2017-12-05T16:07:38.833Z,30.77
2017-12-05T16:10:06.250Z,30.37
2017-12-05T16:12:33.650Z,32.40
2017-12-05T16:15:01.065Z,32.37
2017-12-05T16:17:28.480Z,31.87
2017-12-05T16:19:55.924Z,30.03
2017-12-05T16:22:23.383Z,31.93
2017-12-05T16:24:50.810Z,30.47
2017-12-05T16:27:18.231Z,30.17
2017-12-05T16:29:45.692Z,29.23
2017-12-05T16:32:13.175Z,31.13
2017-12-05T16:34:40.646Z,30.87
2017-12-05T16:37:08.134Z,30.67
2017-12-05T16:39:35.621Z,30.30
2017-12-05T16:42:03.072Z,29.30
2017-12-05T16:44:30.554Z,30.27
2017-12-05T16:46:58.031Z,30.83
2017-12-05T16:49:25.484Z,31.27
2017-12-05T16:51:52.939Z,30.00
2017-12-05T16:54:20.411Z,29.90
2017-12-05T16:56:47.870Z,29.57
2017-12-05T16:59:15.342Z,29.63
2017-12-05T17:01:42.775Z,28.10
2017-12-05T17:04:10.229Z,27.67
2017-12-05T17:06:37.655Z,27.23
2017-12-05T17:09:05.064Z,29.57
2017-12-05T17:11:36.503Z,28.53
2017-12-05T17:14:03.930Z,27.97
2017-12-05T17:16:31.387Z,27.10
2017-12-05T17:18:58.842Z,27.90
2017-12-05T17:21:42.767Z,28.20
2017-12-05T17:24:11.169Z,27.80
2017-12-05T17:26:38.580Z,26.27
2017-12-05T17:29:06.017Z,27.67
2017-12-05T17:31:33.445Z,27.37
2017-12-05T17:34:00.849Z,28.03
2017-12-05T17:36:28.267Z,27.90
2017-12-05T17:38:55.724Z,26.20
2017-12-05T17:41:23.147Z,27.70
2017-12-05T17:43:50.578Z,27.23
2017-12-05T17:46:18.031Z,27.20
2017-12-05T17:48:45.439Z,27.50
2017-12-05T17:51:12.850Z,25.57
2017-12-05T17:53:40.258Z,26.20
2017-12-05T17:56:07.662Z,25.37
2017-12-05T17:58:35.079Z,26.90
2017-12-05T18:01:02.500Z,26.07
2017-12-05T18:03:29.925Z,27.30
2017-12-05T18:05:57.354Z,25.67
2017-12-05T18:08:24.764Z,25.40
2017-12-05T18:10:52.192Z,24.70
2017-12-05T18:13:19.604Z,25.43
2017-12-05T18:15:47.068Z,26.60
2017-12-05T18:18:14.465Z,26.60
2017-12-05T18:20:41.950Z,26.10
2017-12-05T18:23:09.381Z,24.73
2017-12-05T18:25:36.824Z,26.87
2017-12-05T18:28:04.299Z,26.83
2017-12-05T18:30:31.753Z,27.30
2017-12-05T18:32:59.172Z,27.13
2017-12-05T18:35:27.473Z,26.67
2017-12-05T18:37:55.129Z,26.67
2017-12-05T18:40:22.541Z,26.37
2017-12-05T18:42:49.975Z,25.93
2017-12-05T18:45:17.415Z,27.40
2017-12-05T18:47:44.998Z,27.50
2017-12-05T18:50:12.450Z,26.67
2017-12-05T18:52:40.479Z,26.80
2017-12-05T18:55:07.957Z,24.53
2017-12-05T18:57:36.637Z,27.13
2017-12-05T19:00:04.041Z,25.73
2017-12-05T19:02:32.381Z,25.00
2017-12-05T19:04:59.829Z,24.47
2017-12-05T19:07:27.251Z,25.00
2017-12-05T19:09:54.699Z,26.80
2017-12-05T19:12:22.138Z,26.20
2017-12-05T19:14:49.566Z,25.80
2017-12-05T19:17:17.324Z,25.33
2017-12-05T19:19:44.766Z,25.90
2017-12-05T19:22:12.207Z,27.03
2017-12-05T19:24:39.638Z,27.27
2017-12-05T19:27:07.174Z,26.27
2017-12-05T19:29:35.411Z,25.33
2017-12-05T19:32:02.863Z,24.70
2017-12-05T19:34:30.395Z,24.20
2017-12-05T19:36:57.866Z,26.20
2017-12-05T19:39:25.346Z,25.33
2017-12-05T19:41:52.893Z,25.00
2017-12-05T19:44:28.427Z,24.73
2017-12-05T19:46:57.405Z,23.00
2017-12-05T19:49:25.433Z,25.33
2017-12-05T19:51:53.056Z,26.37
2017-12-05T19:54:20.656Z,24.10
2017-12-05T19:56:49.435Z,24.47
2017-12-05T19:59:17.396Z,23.63
2017-12-05T20:01:45.970Z,23.60
2017-12-05T20:04:13.620Z,23.93
2017-12-05T20:06:43.287Z,27.03
2017-12-05T20:09:10.860Z,28.30
2017-12-05T20:11:38.398Z,29.23
2017-12-05T20:14:05.951Z,26.23
2017-12-05T20:16:33.536Z,24.30
2017-12-05T20:19:01.096Z,25.47
2017-12-05T20:21:28.652Z,26.03
2017-12-05T20:23:56.170Z,24.77
2017-12-05T20:26:23.691Z,24.40
2017-12-05T20:28:51.182Z,24.93
2017-12-05T20:31:18.700Z,25.30
2017-12-05T20:33:46.212Z,24.73
2017-12-05T20:36:13.698Z,24.60
2017-12-05T20:38:41.188Z,24.60
2017-12-05T20:41:08.630Z,24.37
2017-12-05T20:43:36.113Z,25.07
2017-12-05T20:46:03.596Z,27.53
2017-12-05T20:48:31.105Z,29.00
2017-12-05T20:50:58.543Z,29.27
2017-12-05T20:53:25.979Z,28.67
2017-12-05T20:55:53.419Z,27.20
2017-12-05T20:58:20.878Z,27.77
2017-12-05T21:00:48.330Z,25.60
2017-12-05T21:03:15.752Z,25.73
2017-12-05T21:05:43.176Z,24.47
2017-12-05T21:08:10.590Z,26.10
2017-12-05T21:10:38.006Z,24.77
2017-12-05T21:13:06.314Z,26.80
2017-12-05T21:15:34.555Z,25.53
2017-12-05T21:18:01.978Z,23.67
2017-12-05T21:20:29.385Z,26.27
2017-12-05T21:22:56.793Z,25.60
2017-12-05T21:25:24.224Z,25.27
2017-12-05T21:27:51.629Z,24.13
2017-12-05T21:30:19.048Z,23.63
2017-12-05T21:32:46.457Z,23.37
2017-12-05T21:35:13.885Z,24.73
2017-12-05T21:37:41.295Z,24.50
2017-12-05T21:40:08.699Z,23.87
2017-12-05T21:42:36.121Z,26.33
2017-12-05T21:45:03.543Z,24.80
2017-12-05T21:47:30.937Z,25.77
2017-12-05T21:49:58.348Z,26.80
2017-12-05T21:52:25.765Z,24.63
2017-12-05T21:54:53.178Z,25.13
2017-12-05T21:57:20.582Z,26.17
2017-12-05T21:59:47.995Z,26.43
2017-12-05T22:02:15.405Z,25.83
2017-12-05T22:04:42.821Z,25.60
2017-12-05T22:07:10.225Z,25.67
2017-12-05T22:09:37.682Z,24.93
2017-12-05T22:12:05.086Z,25.70
2017-12-05T22:14:32.493Z,23.87
2017-12-05T22:16:59.905Z,24.10
2017-12-05T22:19:27.314Z,25.40
2017-12-05T22:21:54.730Z,24.43
2017-12-05T22:24:22.133Z,24.47
2017-12-05T22:26:49.550Z,23.63
2017-12-05T22:29:16.957Z,25.00
2017-12-05T22:31:44.362Z,25.80
2017-12-05T22:34:11.778Z,23.97
2017-12-05T22:36:39.194Z,23.93
2017-12-05T22:39:06.608Z,23.73
2017-12-05T22:41:34.009Z,22.93
2017-12-05T22:44:01.425Z,23.20
2017-12-05T22:46:28.838Z,23.80
2017-12-05T22:48:56.250Z,21.10
2017-12-05T22:51:23.661Z,23.53
2017-12-05T22:53:51.087Z,21.40
2017-12-05T22:56:18.494Z,22.07
2017-12-05T22:58:45.905Z,20.13
2017-12-05T23:01:13.325Z,22.63
2017-12-05T23:03:40.733Z,22.30
2017-12-05T23:06:08.141Z,22.67
2017-12-05T23:08:35.554Z,22.20
2017-12-05T23:11:02.958Z,22.67
2017-12-05T23:13:30.369Z,23.57
2017-12-05T23:15:57.778Z,23.37
2017-12-05T23:18:25.194Z,23.27
2017-12-05T23:20:52.601Z,23.97
2017-12-05T23:23:20.005Z,24.27
2017-12-05T23:25:47.420Z,23.43
2017-12-05T23:28:14.825Z,21.80
2017-12-05T23:30:42.241Z,22.17
2017-12-05T23:33:09.648Z,23.47
2017-12-05T23:35:37.074Z,24.43
2017-12-05T23:38:04.477Z,23.43
2017-12-05T23:40:31.889Z,24.60
2017-12-05T23:42:59.301Z,23.13
2017-12-05T23:45:26.709Z,24.10
2017-12-05T23:47:54.120Z,25.60
2017-12-05T23:50:21.540Z,22.90
2017-12-05T23:52:48.958Z,23.90
2017-12-05T23:55:16.365Z,24.40
2017-12-05T23:57:43.774Z,23.90
